Time;durP1;ratioP1;P1;durP2;ratioP2;P2;SDS_P1;SDS_P2;PMS_P1;PMS_P2;Temp;Humidity;BMP_temperature;BMP_pressure;BME280_temperature;BME280_humidity;BME280_pressure;Samples;Min_cycle;Max_cycle;Signal;HPM_P1;HPM_P2
2023/02/23 00:01:56;;;;;;;211.77;195.20;;;;;;;5.43;90.84;101302.03;4936051;29;20489;-74
2023/02/23 00:04:24;;;;;;;212.48;195.70;;;;;;;5.44;90.97;101305.50;4936126;28;20035;-72
2023/02/23 00:06:51;;;;;;;216.20;199.32;;;;;;;5.42;91.09;101304.91;4904053;29;20051;-72
2023/02/23 00:09:23;;;;;;;203.07;186.27;;;;;;;5.39;91.07;101306.16;4919759;29;20043;-72
2023/02/23 00:11:50;;;;;;;207.82;190.02;;;;;;;5.30;91.21;101304.03;4918008;29;20703;-71
2023/02/23 00:14:15;;;;;;;215.05;198.40;;;;;;;5.35;91.22;101298.84;4920244;29;20047;-72
2023/02/23 00:16:44;;;;;;;210.30;192.20;;;;;;;5.39;91.34;101297.38;4919888;29;20050;-72
2023/02/23 00:19:12;;;;;;;205.02;187.63;;;;;;;5.36;91.00;101287.19;4920861;29;20405;-72
2023/02/23 00:21:41;;;;;;;214.30;197.18;;;;;;;5.36;90.96;101295.16;4920581;29;20043;-71
2023/02/23 00:24:09;;;;;;;218.00;200.75;;;;;;;5.37;91.09;101291.47;4904662;29;20044;-73
2023/02/23 00:26:38;;;;;;;208.30;190.63;;;;;;;5.33;91.04;101290.28;4920892;29;20044;-72
2023/02/23 00:29:07;;;;;;;204.30;186.55;;;;;;;5.33;91.03;101284.97;4920152;29;20728;-73
2023/02/23 00:31:34;;;;;;;218.52;200.68;;;;;;;5.28;91.20;101292.78;4935940;28;20039;-72
2023/02/23 00:34:02;;;;;;;205.18;187.05;;;;;;;5.02;91.04;101293.88;4923561;29;20059;-72
2023/02/23 00:36:32;;;;;;;218.68;201.45;;;;;;;4.89;91.24;101290.31;4933213;29;20625;-71
2023/02/23 00:39:00;;;;;;;206.45;188.73;;;;;;;4.90;91.80;101288.47;4915033;29;20054;-72
2023/02/23 00:41:29;;;;;;;222.57;204.57;;;;;;;5.02;92.02;101289.38;4937235;28;20094;-71
2023/02/23 00:43:57;;;;;;;209.38;190.98;;;;;;;4.98;91.75;101288.19;4921014;29;20524;-72
2023/02/23 00:46:26;;;;;;;220.65;202.70;;;;;;;4.98;92.35;101292.69;4922480;29;20152;-72
2023/02/23 00:48:54;;;;;;;219.82;202.20;;;;;;;4.92;91.63;101295.19;4921376;29;20130;-72
2023/02/23 00:51:21;;;;;;;209.80;191.15;;;;;;;4.86;92.13;101295.25;4922475;29;20134;-72
2023/02/23 00:53:48;;;;;;;217.50;200.20;;;;;;;4.75;91.86;101295.97;4906392;29;20130;-72
2023/02/23 00:56:15;;;;;;;218.27;199.98;;;;;;;4.76;91.84;101297.59;4938800;29;20629;-73
2023/02/23 00:58:41;;;;;;;210.20;191.80;;;;;;;4.76;91.94;101286.97;4924230;29;20036;-76
2023/02/23 01:01:10;;;;;;;222.13;204.07;;;;;;;4.76;92.03;101289.63;4938326;28;20067;-73
2023/02/23 01:03:37;;;;;;;220.38;202.43;;;;;;;4.97;92.22;101291.88;4923161;29;20549;-73
2023/02/23 01:06:05;;;;;;;211.23;192.35;;;;;;;4.93;92.29;101290.69;4940247;29;20032;-72
2023/02/23 01:08:39;;;;;;;211.48;192.70;;;;;;;5.00;92.03;101296.75;4921277;29;20134;-71
2023/02/23 01:11:08;;;;;;;215.38;195.80;;;;;;;4.95;91.98;101288.63;4924882;29;20044;-71
2023/02/23 01:13:35;;;;;;;218.32;200.50;;;;;;;5.06;92.05;101301.19;4938855;28;20040;-71
2023/02/23 01:16:06;;;;;;;213.43;194.82;;;;;;;5.05;92.22;101290.78;4938216;28;20354;-74
2023/02/23 01:18:33;;;;;;;209.02;190.63;;;;;;;5.12;92.12;101288.88;4923249;29;20135;-73
2023/02/23 01:21:01;;;;;;;222.70;204.13;;;;;;;5.05;92.07;101293.44;4938194;28;20043;-73
2023/02/23 01:23:27;;;;;;;222.85;203.85;;;;;;;4.97;91.97;101291.88;4922725;29;20717;-73
2023/02/23 01:25:53;;;;;;;223.55;205.20;;;;;;;4.90;91.95;101296.44;4923533;29;20040;-73
2023/02/23 01:28:18;;;;;;;210.25;191.15;;;;;;;4.87;91.99;101292.34;4922270;29;20047;-72
2023/02/23 01:30:44;;;;;;;220.82;202.70;;;;;;;4.92;92.25;101283.75;4923081;29;20139;-73
2023/02/23 01:33:11;;;;;;;208.23;190.20;;;;;;;4.92;91.96;101283.75;4938196;28;20527;-72
2023/02/23 01:35:37;;;;;;;211.57;193.00;;;;;;;4.94;92.28;101276.38;4924546;29;20034;-72
2023/02/23 01:38:03;;;;;;;224.23;204.88;;;;;;;4.80;91.98;101286.31;4898664;29;20426;-73
2023/02/23 01:40:28;;;;;;;220.73;202.48;;;;;;;4.71;91.77;101282.31;4916696;29;20051;-73
2023/02/23 01:43:16;;;;;;;226.02;206.85;;;;;;;4.61;91.88;101288.13;4924809;29;20115;-73
2023/02/23 01:45:44;;;;;;;212.90;194.00;;;;;;;4.96;92.48;101284.16;4924904;29;20689;-74
2023/02/23 01:48:20;;;;;;;223.75;204.77;;;;;;;4.96;92.35;101284.94;4925939;29;20048;-73
2023/02/23 01:50:54;;;;;;;226.18;207.70;;;;;;;5.04;92.21;101281.19;4923980;29;20039;-73
2023/02/23 01:53:21;;;;;;;139.45;125.38;;;;;;;5.16;92.11;101276.78;4925240;29;20600;-72
2023/02/23 01:55:54;;;;;;;222.93;204.40;;;;;;;5.15;92.27;101285.78;4909436;29;20043;-72
2023/02/23 01:58:23;;;;;;;212.90;193.85;;;;;;;5.12;92.21;101287.03;4926193;29;20027;-73
2023/02/23 02:00:57;;;;;;;227.00;208.40;;;;;;;5.13;91.83;101274.56;4940115;28;20537;-72
2023/02/23 02:03:27;;;;;;;228.10;209.05;;;;;;;5.11;91.79;101277.44;4925536;29;20051;-72
2023/02/23 02:05:53;;;;;;;227.50;208.68;;;;;;;5.10;91.80;101275.81;4925556;29;20074;-74
2023/02/23 02:08:23;;;;;;;228.27;209.35;;;;;;;5.20;91.60;101281.41;4927772;29;20479;-72
2023/02/23 02:10:54;;;;;;;228.63;210.30;;;;;;;5.25;91.77;101277.31;4940646;28;20338;-73
2023/02/23 02:13:31;;;;;;;226.80;208.00;;;;;;;5.22;91.68;101275.09;4924109;29;20139;-72
2023/02/23 02:16:45;;;;;;;216.00;196.93;;;;;;;5.24;91.73;101270.38;4927072;29;20040;-72
2023/02/23 02:19:36;;;;;;;231.95;212.07;;;;;;;5.15;91.95;101278.63;4880947;29;20130;-72
2023/02/23 02:22:14;;;;;;;215.55;195.95;;;;;;;5.08;91.63;101277.06;4923777;29;20126;-72
2023/02/23 02:24:57;;;;;;;214.20;194.73;;;;;;;5.08;91.86;101274.41;4926170;28;20043;-71
2023/02/23 02:27:42;;;;;;;214.45;195.23;;;;;;;5.14;91.96;101278.84;4926330;29;20043;-72
2023/02/23 02:30:24;;;;;;;225.43;206.70;;;;;;;5.09;92.29;101276.84;4924368;29;20173;-71
2023/02/23 02:33:44;;;;;;;214.68;195.13;;;;;;;5.03;92.17;101274.28;4926519;29;20036;-72
2023/02/23 02:36:48;;;;;;;225.05;205.43;;;;;;;4.99;91.75;101275.72;4926791;29;20115;-71
2023/02/23 02:39:34;;;;;;;213.77;194.30;;;;;;;4.93;92.01;101277.41;4890794;29;20045;-73
2023/02/23 02:42:17;;;;;;;211.98;191.75;;;;;;;4.92;91.86;101275.78;4927205;29;20056;-71
2023/02/23 02:44:54;;;;;;;;;;;;;;;4.89;92.19;101276.25;4944323;28;20070;-71
2023/02/23 02:47:57;;;;;;;214.90;195.85;;;;;;;4.90;91.94;101269.91;4924295;29;20380;-73
2023/02/23 02:50:49;;;;;;;151.13;135.70;;;;;;;4.96;91.99;101274.34;4927857;29;20031;-73
2023/02/23 02:53:25;;;;;;;204.45;186.93;;;;;;;4.88;91.86;101266.66;4942043;28;20042;-73
2023/02/23 02:55:55;;;;;;;215.13;197.25;;;;;;;4.83;91.95;101263.84;4931533;29;20039;-72
2023/02/23 02:58:24;;;;;;;207.23;188.55;;;;;;;4.75;92.13;101261.47;4926137;29;20036;-72
2023/02/23 04:18:34;;;;;;;208.15;188.77;;;;;;;4.57;92.15;101281.63;4928080;29;20036;-72
2023/02/23 04:21:01;;;;;;;207.93;188.10;;;;;;;4.76;92.17;101276.38;4929472;29;20126;-75
2023/02/23 04:23:27;;;;;;;205.05;186.75;;;;;;;4.78;92.28;101274.28;4944336;29;20078;-71
2023/02/23 04:25:53;;;;;;;224.25;203.80;;;;;;;4.84;92.13;101276.06;4926745;29;20043;-72
2023/02/23 04:28:20;;;;;;;206.00;187.27;;;;;;;4.88;92.00;101282.59;4927866;29;20142;-72
2023/02/23 04:30:46;;;;;;;208.82;190.00;;;;;;;4.93;92.12;101274.75;4943710;28;20513;-72
2023/02/23 04:33:12;;;;;;;219.15;200.98;;;;;;;4.98;91.86;101274.09;4943443;29;20502;-71
2023/02/23 04:35:38;;;;;;;219.55;200.65;;;;;;;4.99;91.94;101273.88;4910556;29;20031;-71
2023/02/23 04:38:05;;;;;;;221.93;203.00;;;;;;;4.99;91.73;101279.19;4911618;29;20211;-71
2023/02/23 04:40:31;;;;;;;219.88;198.98;;;;;;;5.04;92.28;101274.03;4927977;29;20032;-72
2023/02/23 04:42:57;;;;;;;205.93;185.98;;;;;;;5.01;92.09;101271.81;4910897;29;20039;-72
2023/02/23 04:45:23;;;;;;;221.98;201.02;;;;;;;5.00;92.38;101266.72;4926827;29;20055;-72
2023/02/23 04:47:49;;;;;;;219.85;201.55;;;;;;;5.04;92.03;101262.63;4928915;29;20090;-72
2023/02/23 04:50:16;;;;;;;211.43;192.15;;;;;;;5.06;92.06;101261.34;4930042;28;20202;-72
2023/02/23 04:52:42;;;;;;;209.68;190.05;;;;;;;5.07;92.15;101260.31;4926329;29;20040;-72
2023/02/23 04:55:16;;;;;;;212.13;191.25;;;;;;;5.18;92.15;101267.56;4925698;29;20780;-73
2023/02/23 04:57:42;;;;;;;227.90;202.38;;;;;;;5.13;92.24;101270.06;4928009;29;20043;-72
2023/02/23 05:00:09;;;;;;;224.75;201.18;;;;;;;5.07;92.24;101260.31;4909673;29;20044;-71
2023/02/23 05:02:34;;;;;;;204.70;185.98;;;;;;;5.07;91.75;101264.81;4925173;29;20179;-72
2023/02/23 05:05:00;;;;;;;204.63;185.90;;;;;;;5.10;91.82;101264.41;4942575;28;20053;-71
2023/02/23 05:07:25;;;;;;;204.23;185.35;;;;;;;5.09;92.06;101263.59;4928304;29;20035;-72
2023/02/23 05:09:51;;;;;;;207.98;189.38;;;;;;;5.14;91.93;101266.38;4926854;29;20031;-71
2023/02/23 05:12:17;;;;;;;217.20;198.30;;;;;;;5.11;91.56;101266.00;4925960;29;20039;-72
2023/02/23 05:14:42;;;;;;;210.45;192.38;;;;;;;5.13;91.52;101261.28;4929963;29;20107;-73
2023/02/23 05:17:11;;;;;;;201.82;182.93;;;;;;;5.12;91.60;101264.97;4925521;29;20401;-72
2023/02/23 05:19:36;;;;;;;223.07;200.35;;;;;;;5.19;92.11;101265.72;4931059;29;20059;-72
2023/02/23 05:22:06;;;;;;;209.35;186.93;;;;;;;5.20;92.08;101270.81;4930556;29;20075;-72
2023/02/23 05:24:31;;;;;;;212.63;194.38;;;;;;;5.05;91.78;101269.53;4912999;29;20039;-72
2023/02/23 05:26:57;;;;;;;221.05;201.38;;;;;;;5.10;91.64;101270.50;4930706;29;20517;-72
2023/02/23 05:29:23;;;;;;;207.75;188.18;;;;;;;5.11;91.56;101274.78;4945524;28;20024;-72
2023/02/23 05:31:49;;;;;;;223.35;201.90;;;;;;;5.15;91.71;101270.66;4930623;29;20054;-72
2023/02/23 05:34:18;;;;;;;222.32;199.95;;;;;;;5.16;91.82;101274.94;4944034;29;20111;-72
2023/02/23 05:36:43;;;;;;;215.23;193.18;;;;;;;5.20;91.91;101276.09;4943165;28;20090;-72
2023/02/23 05:39:09;;;;;;;211.73;191.43;;;;;;;5.14;91.70;101273.53;4930947;29;20043;-72
2023/02/23 05:41:34;;;;;;;211.52;191.70;;;;;;;5.16;91.46;101280.25;4929191;29;20608;-72
2023/02/23 05:44:00;;;;;;;210.10;189.68;;;;;;;5.21;91.56;101279.56;4945482;29;20039;-72
2023/02/23 05:46:27;;;;;;;224.07;204.27;;;;;;;5.17;91.60;101281.06;4929391;29;20043;-72
2023/02/23 05:48:58;;;;;;;212.25;192.35;;;;;;;5.18;91.34;101277.38;4945647;28;20043;-74
2023/02/23 05:51:24;;;;;;;210.02;189.95;;;;;;;5.12;91.65;101281.72;4946766;28;20050;-72
2023/02/23 05:53:50;;;;;;;213.90;194.02;;;;;;;5.09;91.72;101274.22;4930417;29;20043;-72
2023/02/23 05:56:19;;;;;;;222.95;203.68;;;;;;;5.09;91.54;101284.81;4946318;29;20031;-71
2023/02/23 05:58:50;;;;;;;208.43;188.98;;;;;;;5.13;91.63;101288.66;4931758;29;20027;-72
2023/02/23 06:01:16;;;;;;;225.95;201.98;;;;;;;5.08;91.31;101277.91;4932779;29;20065;-71
2023/02/23 06:03:43;;;;;;;223.15;203.80;;;;;;;5.03;91.87;101280.38;4933478;29;20043;-72
2023/02/23 06:06:09;;;;;;;271.67;197.93;;;;;;;5.02;91.88;101286.72;4929378;28;20087;-72
2023/02/23 06:08:35;;;;;;;211.77;190.38;;;;;;;5.06;91.78;101287.91;4914761;29;20055;-72
2023/02/23 06:11:01;;;;;;;214.48;195.25;;;;;;;5.00;91.56;101280.81;4943104;28;20047;-72
2023/02/23 06:13:27;;;;;;;210.20;191.43;;;;;;;5.03;91.57;101290.19;4915036;29;20039;-73
2023/02/23 06:15:53;;;;;;;209.07;190.88;;;;;;;4.98;91.63;101293.50;4913336;29;20036;-73
2023/02/23 06:18:20;;;;;;;224.02;205.57;;;;;;;4.99;91.53;101294.31;4910718;29;20050;-72
2023/02/23 06:20:46;;;;;;;221.27;202.43;;;;;;;4.96;91.43;101290.25;4911602;29;20039;-72
2023/02/23 06:23:14;;;;;;;218.35;200.35;;;;;;;4.98;91.64;101292.69;4932595;29;20039;-72
2023/02/23 06:25:41;;;;;;;219.18;201.35;;;;;;;4.97;91.72;101291.06;4930690;29;20040;-72
2023/02/23 06:28:09;;;;;;;221.65;203.90;;;;;;;4.99;91.25;101289.81;4944109;28;20454;-72
2023/02/23 06:30:36;;;;;;;223.27;204.77;;;;;;;5.03;91.53;101291.00;4946652;29;20491;-72
2023/02/23 06:33:01;;;;;;;210.02;190.77;;;;;;;5.06;91.75;101293.22;4911157;29;20028;-72
2023/02/23 06:35:27;;;;;;;222.75;204.65;;;;;;;5.06;91.52;101298.53;4930812;29;20409;-72
2023/02/23 06:37:53;;;;;;;222.38;204.75;;;;;;;5.05;91.55;101298.75;4914345;29;20038;-72
2023/02/23 06:40:19;;;;;;;220.68;202.65;;;;;;;5.03;91.04;101293.66;4930898;29;20499;-72
2023/02/23 06:42:45;;;;;;;215.93;198.60;;;;;;;5.07;91.22;101297.47;4928153;29;20375;-72
2023/02/23 06:45:12;;;;;;;207.32;189.30;;;;;;;5.06;91.32;101301.19;4929021;29;20039;-73
2023/02/23 06:47:39;;;;;;;207.48;188.32;;;;;;;5.13;91.33;101306.41;4929740;29;20611;-73
2023/02/23 06:50:07;;;;;;;207.70;188.77;;;;;;;5.19;91.49;101319.63;4946076;28;20043;-72
2023/02/23 06:52:33;;;;;;;209.40;191.35;;;;;;;5.09;91.10;101306.06;4930537;29;20036;-73
2023/02/23 06:54:58;;;;;;;208.25;190.32;;;;;;;5.13;91.46;101317.84;4929633;29;20039;-72
2023/02/23 06:57:24;;;;;;;217.32;199.57;;;;;;;5.15;91.45;101315.81;4931955;29;20121;-73
2023/02/23 06:59:49;;;;;;;209.60;191.18;;;;;;;5.16;91.12;101317.44;4932230;29;20050;-74
2023/02/23 07:02:16;;;;;;;206.73;188.80;;;;;;;5.12;90.77;101321.53;4927390;29;20031;-73
2023/02/23 07:04:44;;;;;;;208.77;190.65;;;;;;;5.27;91.30;101323.84;4930185;29;20040;-74
2023/02/23 07:07:11;;;;;;;209.13;191.00;;;;;;;5.19;91.08;101332.09;4928545;29;20130;-72
2023/02/23 07:09:39;;;;;;;213.02;195.93;;;;;;;5.19;91.05;101326.78;4930275;29;20043;-72
2023/02/23 07:12:05;;;;;;;216.35;199.15;;;;;;;5.22;91.21;101330.88;4930105;29;20133;-73
2023/02/23 07:14:31;;;;;;;218.75;201.38;;;;;;;5.23;90.98;101332.50;4931769;29;20123;-74
2023/02/23 07:16:57;;;;;;;205.18;187.43;;;;;;;5.25;90.87;101343.69;4910636;29;20435;-74
2023/02/23 07:19:24;;;;;;;220.60;201.95;;;;;;;5.36;91.21;101348.28;4930839;29;20035;-74
2023/02/23 07:21:49;;;;;;;207.05;189.07;;;;;;;5.29;90.53;101348.34;4931923;28;20042;-74
2023/02/23 07:24:15;;;;;;;203.60;186.10;;;;;;;5.41;91.16;101351.06;4944729;28;20043;-73
2023/02/23 07:26:45;;;;;;;215.30;198.05;;;;;;;5.30;90.64;101349.16;4927959;29;20758;-72
2023/02/23 07:29:11;;;;;;;206.57;188.32;;;;;;;5.35;90.59;101358.09;4927427;29;20122;-71
2023/02/23 07:31:38;;;;;;;205.95;187.82;;;;;;;5.35;90.74;101359.91;4929947;29;20042;-72
2023/02/23 07:34:05;;;;;;;204.98;187.77;;;;;;;5.44;90.51;101358.63;4945308;28;20949;-72
2023/02/23 07:36:31;;;;;;;208.23;189.38;;;;;;;5.47;90.82;101360.81;4946628;28;20039;-74
2023/02/23 07:38:57;;;;;;;207.40;189.55;;;;;;;5.45;90.92;101361.06;4945318;28;20040;-72
2023/02/23 07:41:22;;;;;;;214.57;196.63;;;;;;;5.49;90.48;101369.41;4944010;28;20027;-72
2023/02/23 07:43:48;;;;;;;206.55;188.73;;;;;;;5.48;90.60;101368.56;4945003;29;20046;-72
2023/02/23 07:46:14;;;;;;;208.35;190.45;;;;;;;5.54;90.68;101372.19;4929158;29;20074;-74
2023/02/23 07:48:43;;;;;;;216.57;197.70;;;;;;;5.64;90.64;101371.69;4943654;28;20070;-74
2023/02/23 07:51:12;;;;;;;204.13;186.10;;;;;;;5.62;90.67;101363.13;4913144;29;20039;-74
2023/02/23 07:53:39;;;;;;;213.02;195.45;;;;;;;5.75;90.56;101366.44;4942517;28;20045;-72
2023/02/23 07:56:05;;;;;;;212.30;195.00;;;;;;;5.68;90.46;101364.88;4944481;28;20696;-72
2023/02/23 07:58:31;;;;;;;205.95;187.82;;;;;;;5.70;90.50;101371.63;4930367;29;20058;-72
2023/02/23 08:00:56;;;;;;;205.60;188.02;;;;;;;5.72;90.69;101366.88;4930931;29;20138;-72
2023/02/23 08:03:22;;;;;;;201.23;183.57;;;;;;;5.71;90.92;101367.94;4924855;29;21013;-73
2023/02/23 08:05:48;;;;;;;212.13;194.70;;;;;;;5.77;90.67;101376.88;4929743;29;20094;-72
2023/02/23 08:08:16;;;;;;;208.55;190.13;;;;;;;5.75;90.36;101374.41;4925668;29;20063;-72
2023/02/23 08:10:41;;;;;;;209.85;190.88;;;;;;;5.78;90.75;101375.03;4928025;29;20127;-73
2023/02/23 08:13:07;;;;;;;208.95;189.52;;;;;;;5.85;90.28;101373.09;4943339;28;20110;-73
2023/02/23 08:15:33;;;;;;;218.90;199.48;;;;;;;5.93;90.26;101370.16;4929186;29;20661;-73
2023/02/23 08:17:58;;;;;;;234.50;211.18;;;;;;;5.97;90.66;101381.97;4928702;29;20465;-72
2023/02/23 08:20:26;;;;;;;231.63;208.52;;;;;;;5.97;91.06;101376.66;4930551;29;20114;-73
2023/02/23 08:22:53;;;;;;;266.13;195.98;;;;;;;6.03;90.68;101381.09;4932674;29;20071;-73
2023/02/23 08:25:19;;;;;;;236.05;203.68;;;;;;;6.02;90.82;101382.09;4927683;29;20043;-73
2023/02/23 08:27:45;;;;;;;222.95;199.35;;;;;;;6.01;90.95;101378.63;4929335;29;20040;-72
2023/02/23 08:30:12;;;;;;;232.55;208.35;;;;;;;6.12;90.79;101377.06;4929793;29;20047;-74
2023/02/23 08:32:40;;;;;;;237.20;213.30;;;;;;;6.25;90.85;101379.56;4914504;29;20036;-73
2023/02/23 08:35:08;;;;;;;239.43;214.10;;;;;;;6.25;91.16;101387.53;4927402;29;20091;-76
2023/02/23 08:37:34;;;;;;;239.18;208.93;;;;;;;6.36;90.87;101380.63;4900136;29;20125;-72
2023/02/23 08:39:59;;;;;;;248.50;219.90;;;;;;;6.45;91.00;101389.94;4913936;29;20035;-74
2023/02/23 08:42:26;;;;;;;282.27;211.02;;;;;;;6.48;90.86;101391.31;4927175;29;20539;-73
2023/02/23 08:44:52;;;;;;;268.27;213.60;;;;;;;6.49;90.82;101390.28;4925533;29;20039;-73
2023/02/23 08:47:20;;;;;;;253.73;206.30;;;;;;;6.49;91.00;101391.09;4927307;29;20034;-73
2023/02/23 08:49:47;;;;;;;244.75;219.07;;;;;;;6.39;90.96;101385.53;4942538;28;20043;-73
2023/02/23 08:52:12;;;;;;;232.07;207.40;;;;;;;6.46;90.17;101382.75;4927307;29;20200;-73
2023/02/23 08:54:38;;;;;;;241.68;216.85;;;;;;;6.48;90.48;101388.66;4927520;29;20035;-72
2023/02/23 08:57:04;;;;;;;235.30;207.30;;;;;;;6.49;90.24;101392.94;4912034;29;20058;-73
2023/02/23 08:59:29;;;;;;;238.77;215.48;;;;;;;6.45;90.52;101383.81;4909813;29;20122;-74
2023/02/23 09:01:58;;;;;;;242.15;218.38;;;;;;;6.42;90.76;101389.56;4910818;29;20130;-73
2023/02/23 09:04:23;;;;;;;239.73;215.65;;;;;;;6.40;90.51;101386.31;4927801;29;20039;-73
2023/02/23 09:06:49;;;;;;;239.65;214.65;;;;;;;6.52;90.54;101384.53;4924364;28;20059;-73
2023/02/23 09:09:16;;;;;;;228.98;205.40;;;;;;;6.44;90.23;101393.66;4925944;29;20036;-74
2023/02/23 09:11:41;;;;;;;234.60;211.50;;;;;;;6.42;90.00;101384.25;4944683;28;20754;-73
2023/02/23 09:14:07;;;;;;;227.85;204.07;;;;;;;6.46;90.36;101390.75;4929722;29;20036;-73
2023/02/23 09:16:34;;;;;;;225.52;203.63;;;;;;;6.40;90.00;101379.16;4928760;29;20039;-74
2023/02/23 09:19:01;;;;;;;220.15;198.10;;;;;;;6.43;90.31;101391.19;4942023;28;20098;-74
2023/02/23 09:21:28;;;;;;;231.18;209.63;;;;;;;6.50;90.54;101391.91;4929347;29;20500;-73
2023/02/23 09:23:55;;;;;;;224.70;202.25;;;;;;;6.49;90.33;101395.59;4929661;29;20031;-75
2023/02/23 09:26:22;;;;;;;222.18;199.40;;;;;;;6.46;90.41;101385.44;4930792;29;20071;-73
2023/02/23 09:28:49;;;;;;;220.85;198.55;;;;;;;6.52;90.04;101392.50;4927623;29;20178;-74
2023/02/23 09:31:18;;;;;;;215.63;195.18;;;;;;;6.52;89.85;101387.19;4942674;28;20427;-74
2023/02/23 09:33:43;;;;;;;231.85;209.50;;;;;;;6.65;89.95;101394.97;4929307;29;20031;-73
2023/02/23 09:36:15;;;;;;;227.88;206.13;;;;;;;6.54;90.04;101393.91;4930006;29;20024;-73
2023/02/23 09:38:54;;;;;;;227.65;205.50;;;;;;;6.50;90.45;101389.25;4930278;29;20031;-72
2023/02/23 09:41:36;;;;;;;223.68;200.93;;;;;;;6.51;89.97;101396.22;4931012;29;20114;-72
2023/02/23 09:44:20;;;;;;;;;;;;;;;6.46;89.87;101396.06;4931479;29;20044;-73
2023/02/23 09:46:52;;;;;;;240.18;217.25;;;;;;;6.43;90.16;101401.81;4930114;29;19922;-73
2023/02/23 09:49:24;;;;;;;238.60;213.55;;;;;;;6.52;90.08;101403.16;4930010;29;20062;-73
2023/02/23 09:51:56;;;;;;;244.90;220.40;;;;;;;6.43;90.48;101407.16;4943568;28;20043;-73
2023/02/23 09:54:26;;;;;;;241.68;213.05;;;;;;;6.47;90.07;101408.34;4909280;29;20072;-73
2023/02/23 09:56:55;;;;;;;249.45;223.80;;;;;;;6.40;89.85;101405.75;4927449;29;20035;-73
2023/02/23 09:59:21;;;;;;;246.32;219.38;;;;;;;6.40;90.22;101413.75;4927471;29;20046;-74
2023/02/23 10:01:47;;;;;;;258.52;214.65;;;;;;;6.47;89.63;101414.47;4915723;29;20043;-72
2023/02/23 10:04:37;;;;;;;253.32;217.48;;;;;;;6.47;89.82;101411.00;4948010;29;20108;-74
2023/02/23 10:07:28;;;;;;;264.05;220.60;;;;;;;6.37;89.66;101410.69;4930805;29;20378;-74
2023/02/23 10:10:30;;;;;;;289.33;224.65;;;;;;;6.44;90.08;101419.44;4935218;28;20059;-74
2023/02/23 10:13:02;;;;;;;322.15;234.52;;;;;;;6.48;89.78;101415.28;4914679;29;20394;-74
2023/02/23 10:15:39;;;;;;;351.20;238.93;;;;;;;6.34;89.78;101419.16;4930367;29;20039;-74
2023/02/23 10:18:32;;;;;;;351.92;240.02;;;;;;;6.31;90.41;101423.09;4928678;29;20803;-73
2023/02/23 10:20:58;;;;;;;;;;;;;;;6.26;90.03;101429.06;4930616;29;20039;-74
2023/02/23 10:23:32;;;;;;;363.75;245.27;;;;;;;6.47;90.00;101424.28;4945187;28;19938;-74
2023/02/23 10:25:59;;;;;;;311.27;244.75;;;;;;;6.48;89.26;101420.59;4946429;28;20123;-74
2023/02/23 10:28:29;;;;;;;327.92;248.20;;;;;;;6.56;89.05;101423.75;4929291;29;20493;-74
2023/02/23 10:30:55;;;;;;;333.63;238.27;;;;;;;6.65;88.71;101421.59;4946334;28;20047;-73
2023/02/23 10:33:35;;;;;;;298.38;230.50;;;;;;;6.77;88.20;101422.44;4930652;29;20035;-73
2023/02/23 10:36:34;;;;;;;310.15;237.00;;;;;;;6.78;88.34;101426.72;4929979;29;20039;-73
2023/02/23 10:38:59;;;;;;;299.88;233.85;;;;;;;6.88;87.93;101423.50;4927990;29;20086;-73
2023/02/23 10:41:25;;;;;;;306.98;234.57;;;;;;;6.86;88.06;101422.13;4914401;29;20501;-74
2023/02/23 10:43:51;;;;;;;297.98;229.85;;;;;;;6.97;87.92;101431.97;4930911;29;20098;-74
2023/02/23 10:46:22;;;;;;;286.42;229.18;;;;;;;6.97;87.52;101429.28;4928961;29;20047;-74
2023/02/23 10:48:54;;;;;;;278.38;234.27;;;;;;;7.14;87.84;101424.94;4932498;29;20042;-73
2023/02/23 10:51:25;;;;;;;;;;;;;;;7.09;87.69;101428.28;4935278;28;20119;-74
2023/02/23 10:53:51;;;;;;;301.08;229.48;;;;;;;6.97;87.20;101429.28;4928227;29;20001;-74
2023/02/23 10:56:18;;;;;;;306.42;231.05;;;;;;;7.06;87.37;101425.28;4946142;29;20115;-73
2023/02/23 10:58:46;;;;;;;294.00;235.23;;;;;;;6.89;87.35;101426.97;4931593;29;20032;-73
2023/02/23 11:01:43;;;;;;;288.75;235.30;;;;;;;6.95;87.17;101426.88;4928671;29;20066;-73
2023/02/23 11:04:20;;;;;;;295.45;233.95;;;;;;;6.93;87.42;101430.81;4922974;29;20035;-73
2023/02/23 11:06:47;;;;;;;308.30;230.98;;;;;;;7.03;87.47;101425.72;4944966;28;20046;-73
2023/02/23 11:09:28;;;;;;;290.73;232.90;;;;;;;6.97;86.94;101429.28;4928952;29;20032;-73
2023/02/23 11:11:56;;;;;;;275.33;232.75;;;;;;;6.70;86.60;101429.69;4940263;28;20543;-74
2023/02/23 11:14:24;;;;;;;290.27;225.38;;;;;;;6.57;86.77;101430.72;4929316;29;20044;-74
2023/02/23 11:16:50;;;;;;;304.00;233.70;;;;;;;6.51;87.18;101431.63;4926840;29;20090;-73
2023/02/23 11:19:25;;;;;;;303.15;230.20;;;;;;;6.42;87.49;101437.47;4928959;29;20508;-73
2023/02/23 11:21:51;;;;;;;296.20;230.88;;;;;;;6.37;87.79;101426.66;4927677;29;20099;-73
2023/02/23 11:24:22;;;;;;;300.92;239.55;;;;;;;6.38;87.45;101425.66;4926766;29;20035;-73
2023/02/23 11:26:53;;;;;;;317.13;231.55;;;;;;;6.31;87.76;101427.59;4944006;28;20032;-73
2023/02/23 11:29:33;;;;;;;286.50;181.13;;;;;;;6.37;88.00;101426.66;4929053;29;20051;-73
2023/02/23 11:32:22;;;;;;;314.48;233.40;;;;;;;6.35;88.58;101420.78;4942560;28;20039;-73
2023/02/23 11:35:34;;;;;;;286.60;224.18;;;;;;;6.33;87.23;101414.88;4925955;29;20458;-73
2023/02/23 11:38:14;;;;;;;284.27;227.88;;;;;;;6.36;86.86;101414.41;4908992;29;20062;-73
2023/02/23 11:40:40;;;;;;;273.67;230.88;;;;;;;6.36;85.70;101406.44;4944474;28;20031;-75
2023/02/23 11:43:14;;;;;;;291.13;226.73;;;;;;;6.49;86.50;101411.56;4926203;29;20102;-74
2023/02/23 11:45:48;;;;;;;266.63;230.43;;;;;;;6.79;85.21;101408.91;4912079;29;20063;-73
2023/02/23 11:48:21;;;;;;;259.25;219.20;;;;;;;7.12;82.81;101408.38;4928759;29;20042;-73
2023/02/23 11:50:48;;;;;;;253.70;221.63;;;;;;;7.31;82.92;101409.06;4928115;29;20032;-73
2023/02/23 11:53:28;;;;;;;252.90;225.10;;;;;;;7.57;81.93;101391.81;4929262;29;20062;-73
2023/02/23 11:56:06;;;;;;;246.48;217.07;;;;;;;7.55;82.20;101396.56;4927733;29;20105;-73
2023/02/23 11:58:41;;;;;;;248.57;221.95;;;;;;;7.83;83.15;101403.81;4929715;29;20051;-72
2023/02/23 12:01:13;;;;;;;251.82;225.32;;;;;;;7.63;81.59;101398.88;4929274;29;20040;-72
2023/02/23 12:03:46;;;;;;;239.00;212.80;;;;;;;7.59;81.47;101398.53;4946214;28;20063;-73
2023/02/23 12:06:35;;;;;;;239.02;212.68;;;;;;;7.28;80.53;101390.91;4928319;28;20054;-73
2023/02/23 12:09:18;;;;;;;244.20;218.45;;;;;;;7.36;81.31;101393.22;4927591;29;20046;-73
2023/02/23 12:12:19;;;;;;;239.73;212.52;;;;;;;7.51;82.22;101384.72;4944828;28;20039;-74
2023/02/23 12:14:50;;;;;;;240.95;210.75;;;;;;;7.59;81.91;101381.75;4945411;29;20620;-74
2023/02/23 12:17:37;;;;;;;244.98;213.88;;;;;;;7.77;81.24;101386.91;4930862;29;20041;-73
2023/02/23 12:20:02;;;;;;;238.73;212.68;;;;;;;7.64;80.46;101393.28;4941405;28;20042;-73
2023/02/23 12:22:34;;;;;;;238.45;212.43;;;;;;;7.58;80.92;101388.09;4912039;29;20031;-73
2023/02/23 12:25:35;;;;;;;246.80;221.32;;;;;;;7.58;81.33;101382.75;4926010;29;20382;-73
2023/02/23 12:28:09;;;;;;;241.68;215.30;;;;;;;7.64;81.48;101392.47;4904730;29;20059;-73
2023/02/23 12:30:59;;;;;;;237.13;211.15;;;;;;;7.55;80.75;101391.22;4928394;29;20056;-73
2023/02/23 12:33:34;;;;;;;246.00;220.38;;;;;;;7.47;79.61;101394.25;4926389;29;20142;-73
2023/02/23 12:36:17;;;;;;;236.82;210.73;;;;;;;7.36;81.37;101399.34;4912566;29;20059;-73